< Cyclone 201504 2015 Season Cyclone 201514 >
Cyclone 201513 (Lam)
General InformationDetailed Track InformationTrack Information on Google MapsList of All Images || ResourceGoogle EarthGE AnimationAtom FeedGeoJSON
Detalied Best Track Wind (Time Zone = UTC)
Year Month Day Hour Lat. Long. Wind (kt) Gust (kt) Direc. of Major Storm Axis Radius of Major Storm Axis (nm) Radius of Minor Storm Axis (nm) Direc. of Major Gale Axis Radius of Major Gale Axis (nm) Radius of Minor Gale Axis (nm) Image
2015 2 14 00 -12.2 145.1 0 -1 symmetric - - symmetric - - Image
2015 2 14 06 -12.5 144.8 15 45 symmetric - - symmetric - - Image
2015 2 15 00 -12.8 143.9 15 45 symmetric - - symmetric - - Image
2015 2 15 06 -12.6 142.5 15 45 symmetric - - symmetric - - Image
2015 2 15 12 -12.0 141.7 20 45 symmetric - - symmetric - - Image
2015 2 15 18 -11.9 141.4 20 45 symmetric - - symmetric - - Image
2015 2 15 21 -11.6 140.8 20 45 symmetric - - symmetric - - Image
2015 2 16 00 -11.4 140.5 25 45 symmetric - - symmetric - - Image
2015 2 16 06 -11.1 140.1 25 45 symmetric - - symmetric - - Image
2015 2 16 12 -11.2 140.1 30 45 symmetric - - symmetric - - Image
2015 2 16 18 -11.5 139.8 40 55 symmetric - - symmetric - - Image
2015 2 17 00 -11.5 139.4 50 70 symmetric - - symmetric - - Image
2015 2 17 06 -11.5 138.8 55 75 symmetric - - symmetric - - Image
2015 2 17 12 -11.4 138.5 55 75 symmetric - - symmetric - - Image
2015 2 17 18 -11.3 138.0 55 75 symmetric - - symmetric - - Image
2015 2 18 00 -11.1 137.2 60 85 symmetric - - symmetric - - Image
2015 2 18 06 -10.9 136.7 65 90 symmetric - - symmetric - - Image
2015 2 18 12 -10.7 136.5 65 90 symmetric - - symmetric - - Image
2015 2 18 18 -11.0 136.4 75 105 symmetric - - symmetric - - Image
2015 2 19 00 -11.2 136.1 75 105 symmetric - - symmetric - - Image
2015 2 19 06 -11.6 135.7 80 110 symmetric - - symmetric - - Image
2015 2 19 12 -11.9 135.4 100 140 symmetric - - symmetric - - Image
2015 2 19 18 -12.2 134.9 95 135 symmetric - - symmetric - - Image
2015 2 20 00 -12.8 134.5 60 85 symmetric - - symmetric - - Image
2015 2 20 12 -14.3 133.2 0 -1 symmetric - - symmetric - - Image
2015 2 20 18 -14.7 133.0 0 -1 symmetric - - symmetric - - Image
< Cyclone 201504 2015 Season Cyclone 201514 >

Help